Data for 07/20/2016

Time Sea-Level Adjusted Pressure Absolute Pressure Temperature Relative Humidity Dew Point   
(mb) (inHg) (mb) (inHg) (C) (F) (%) (C) (F)
00:05 1019 30.09 848 25.04 21.7 71 18 -3.5 25.8
00:10 1019 30.09 848 25.04 21.4 70.6 19 -3.1 26.4
00:15 1019 30.09 848 25.04 21.2 70.2 19 -3.1 26.3
00:20 1019 30.09 849 25.07 21.1 70 20 -2.7 27.2
00:25 1019 30.09 849 25.07 21.1 69.9 21 -1.8 28.7
00:30 1019 30.09 849 25.07 21.1 70 21 -2.2 28.1
00:35 1019 30.09 849 25.07 20.7 69.2 22 -1.5 29.4
00:40 1019 30.09 849 25.07 21.2 70.1 22 -1 30.3
00:45 1020 30.12 849 25.07 21.1 70 22 -1.4 29.5
00:50 1020 30.12 849 25.07 20.7 69.3 22 -1.8 28.7
00:55 1020 30.12 849 25.07 20.2 68.4 22 -2 28.3
01:00 1020 30.12 849 25.07 19.6 67.3 24 -1.6 29.2
01:05 1020 30.12 849 25.07 19.1 66.5 26 -0.8 30.5
01:10 1020 30.12 849 25.07 18.7 65.7 27 -0.3 31.4
01:15 1020 30.12 849 25.07 18.4 65.2 28 -0.4 31.2
01:20 1020 30.12 849 25.07 18.7 65.6 27 -0.5 31.1
01:25 1020 30.12 849 25.07 19.1 66.4 28 0.1 32.2
01:30 1020 30.12 849 25.07 19.1 66.4 28 0.6 33
01:35 1020 30.12 849 25.07 19.3 66.7 29 1.2 34.1
01:40 1020 30.12 849 25.07 19.3 66.7 31 1.8 35.2
01:45 1020 30.12 849 25.07 19.4 66.9 31 1.9 35.5
01:50 1020 30.12 849 25.07 19.5 67 31 1.9 35.4
01:55 1020 30.12 849 25.07 19.6 67.4 31 2 35.6
02:00 1020 30.12 849 25.07 19.5 67.1 31 2.2 35.9
02:05 1020 30.12 849 25.07 19.4 66.9 32 2.3 36.2
02:10 1020 30.12 849 25.07 19.2 66.6 33 2.7 36.9
02:15 1020 30.12 849 25.07 18.7 65.7 33 2.4 36.3
02:20 1020 30.12 849 25.07 18.4 65.1 33 2.1 35.8
02:25 1020 30.12 849 25.07 18.3 65 33 1.7 35.1
02:30 1020 30.12 849 25.07 18.1 64.6 34 2.3 36.1
02:35 1020 30.12 849 25.07 17.3 63.2 40 3.6 38.5
02:40 1020 30.12 849 25.07 16.8 62.2 36 1.6 35
02:45 1020 30.12 849 25.07 16.7 62.1 37 2.2 35.9
02:50 1020 30.12 849 25.07 16.8 62.3 36 1.6 34.9
02:55 1020 30.12 850 25.1 16.5 61.7 35 1.1 33.9
03:00 1020 30.12 850 25.1 16.5 61.6 36 1.3 34.3
03:05 1020 30.12 850 25.1 16.6 61.9 35 1.3 34.3
03:10 1021 30.15 850 25.1 16.2 61.1 39 2.3 36.1
03:15 1020 30.12 850 25.1 16 60.9 41 2.8 37
03:20 1020 30.12 850 25.1 16.1 60.9 41 3 37.3
03:25 1020 30.12 850 25.1 16.2 61.2 40 2.7 36.9
03:30 1020 30.12 849 25.07 17.2 63 36 2 35.6
03:35 1020 30.12 850 25.1 17 62.5 39 2.9 37.2
03:40 1021 30.15 850 25.1 16 60.8 41 2.8 37.1
03:45 1020 30.12 850 25.1 15.9 60.6 40 2.5 36.4
03:50 1020 30.12 849 25.07 15.7 60.2 39 2 35.6
03:55 1020 30.12 849 25.07 15.9 60.6 40 2.3 36.2
04:00 1020 30.12 849 25.07 16 60.8 39 2.3 36.1
04:05 1020 30.12 850 25.1 16.4 61.5 39 2.4 36.2
04:10 1021 30.15 850 25.1 16.4 61.4 39 2.6 36.7
04:15 1021 30.15 850 25.1 16.6 61.8 40 3.1 37.6
04:20 1021 30.15 850 25.1 17 62.6 38 2.8 37
04:25 1021 30.15 850 25.1 17.1 62.7 43 4.6 40.3
04:30 1021 30.15 850 25.1 16.5 61.8 41 3.5 38.3
04:35 1021 30.15 850 25.1 16.2 61.1 43 3.6 38.5
04:40 1021 30.15 850 25.1 16.1 61 41 2.9 37.3
04:45 1020 30.12 850 25.1 16.5 61.6 40 3 37.4
04:50 1020 30.12 849 25.07 16.2 61.2 43 3.6 38.5
04:55 1020 30.12 849 25.07 15.9 60.5 44 3.6 38.4
05:00 1020 30.12 849 25.07 15.8 60.5 43 3.3 38
05:05 1020 30.12 849 25.07 15.9 60.6 42 3.3 37.9
05:10 1021 30.15 850 25.1 16 60.9 43 3.5 38.3
05:15 1020 30.12 850 25.1 16.3 61.3 43 3.7 38.6
05:20 1020 30.12 849 25.07 16.1 60.9 43 3.6 38.6
05:25 1020 30.12 849 25.07 15.9 60.6 44 3.6 38.5
05:30 1020 30.12 850 25.1 16.1 61 43 3.6 38.5
05:35 1020 30.12 850 25.1 16.3 61.4 43 3.8 38.8
05:40 1020 30.12 849 25.07 16.2 61.2 43 3.8 38.8
05:45 1020 30.12 849 25.07 16.2 61.1 43 3.8 38.9
05:50 1020 30.12 849 25.07 16.2 61.2 46 4.6 40.2
05:55 1020 30.12 849 25.07 15.9 60.7 47 4.8 40.6
06:00 1020 30.12 849 25.07 15.9 60.6 45 4 39.2
06:05 1020 30.12 849 25.07 16.4 61.5 43 3.8 38.9
06:10 1020 30.12 849 25.07 16.5 61.7 44 4.4 39.8
06:15 1020 30.12 850 25.1 16.7 62 45 4.8 40.6
06:20 1021 30.15 851 25.13 16.6 61.9 48 5.5 42
06:25 1021 30.15 850 25.1 16.3 61.4 48 5.3 41.5
06:30 1020 30.12 849 25.07 16.4 61.5 48 5.3 41.6
06:35 1021 30.15 850 25.1 16.5 61.7 49 5.7 42.3
06:40 1021 30.15 850 25.1 16.2 61.1 50 5.7 42.3
06:45 1021 30.15 851 25.13 16 60.7 52 6.2 43.2
06:50 1022 30.18 851 25.13 16.1 60.9 50 5.6 42.1
06:55 1021 30.15 851 25.13 16.1 61 48 5.3 41.5
07:00 1021 30.15 850 25.1 16.1 61 53 6.7 44
07:05 1021 30.15 851 25.13 16.1 61 55 7.3 45.1
07:10 1021 30.15 851 25.13 16.4 61.5 51 6.4 43.6
07:15 1021 30.15 851 25.13 16.8 62.3 51 6.6 43.9
07:20 1021 30.15 850 25.1 17.6 63.6 50 7.1 44.8
07:25 1021 30.15 851 25.13 18.7 65.6 45 6.6 43.9
07:30 1022 30.18 851 25.13 19.1 66.5 43 6.3 43.4
07:35 1022 30.18 851 25.13 19.2 66.5 44 6.8 44.2
07:40 1022 30.18 851 25.13 19.5 67.1 44 7 44.6
07:45 1022 30.18 851 25.13 19.6 67.3 45 7.4 45.3
07:50 1022 30.18 851 25.13 19.6 67.2 44 7.2 44.9
07:55 1022 30.18 851 25.13 19.3 66.7 44 6.9 44.4
08:00 1022 30.18 851 25.13 19 66.2 42 5.9 42.6
08:05 1022 30.18 851 25.13 19.7 67.4 39 5.3 41.6
08:10 1022 30.18 851 25.13 20.3 68.5 38 5.6 42.2
08:15 1022 30.18 851 25.13 20.1 68.2 38 5.4 41.7
08:20 1022 30.18 851 25.13 20 68 38 5.5 42
08:25 1022 30.18 851 25.13 20 68 37 5.1 41.1
08:30 1022 30.18 851 25.13 19.9 67.9 37 5.2 41.3
08:35 1022 30.18 851 25.13 19.5 67 40 5.7 42.3
08:40 1021 30.15 851 25.13 19 66.1 43 6.1 43
08:45 1021 30.15 851 25.13 19.2 66.5 43 6.6 43.8
08:50 1021 30.15 851 25.13 19.8 67.7 42 6.6 43.8
08:55 1021 30.15 851 25.13 19.9 67.8 41 6.4 43.5
09:00 1021 30.15 851 25.13 19.5 67 41 6 42.7
09:05 1021 30.15 851 25.13 19.7 67.4 41 6.2 43.1
09:10 1021 30.15 851 25.13 20.3 68.6 38 5.7 42.2
09:15 1022 30.18 851 25.13 21 69.8 36 5.6 42.1
09:20 1022 30.18 851 25.13 21.5 70.6 36 6 42.8
09:25 1022 30.18 851 25.13 21.7 71.1 35 5.9 42.6
09:30 1022 30.18 851 25.13 21.9 71.5 37 6.6 43.9
09:35 1022 30.18 851 25.13 22.4 72.3 35 6.5 43.7
09:40 1022 30.18 851 25.13 22.8 73 35 6.9 44.4
09:45 1022 30.18 851 25.13 22.5 72.6 36 7 44.6
09:50 1022 30.18 851 25.13 22.9 73.3 35 6.9 44.5
09:55 1022 30.18 851 25.13 22.9 73.2 35 7 44.6
10:00 1022 30.18 851 25.13 22.5 72.5 34 6.1 42.9
10:05 1022 30.18 851 25.13 22.1 71.8 34 5.6 42
10:10 1022 30.18 851 25.13 22.9 73.3 33 6 42.7
10:15 1022 30.18 851 25.13 23.7 74.6 32 6.2 43.2
10:20 1022 30.18 851 25.13 23.8 74.9 32 6.2 43.1
10:25 1022 30.18 851 25.13 23.8 74.8 32 6.1 43
10:30 1022 30.18 851 25.13 24 75.3 30 5.7 42.3
10:35 1022 30.18 851 25.13 24 75.1 31 6 42.7
10:40 1022 30.18 851 25.13 23.7 74.6 33 6.7 44.1
10:45 1022 30.18 851 25.13 24 75.2 31 6 42.8
10:50 1022 30.18 851 25.13 24.2 75.5 31 6 42.8
10:55 1022 30.18 851 25.13 24.1 75.4 31 6.2 43.2
11:00 1022 30.18 851 25.13 24.5 76.1 30 6.1 42.9
11:05 1022 30.18 851 25.13 24.2 75.5 31 6.4 43.5
11:10 1022 30.18 851 25.13 24.2 75.6 29 5.4 41.8
11:15 1021 30.15 851 25.13 25 77 29 6.2 43.1
11:20 1021 30.15 851 25.13 26.2 79.2 25 4.8 40.6
11:25 1021 30.15 850 25.1 25.7 78.3 27 5.6 42.1
11:30 1021 30.15 850 25.1 25.4 77.8 27 5.2 41.4
11:35 1021 30.15 850 25.1 26 78.7 26 5 41
11:40 1021 30.15 850 25.1 26 78.7 26 5.2 41.4
11:45 1021 30.15 850 25.1 27 80.7 23 4.5 40.2
11:50 1021 30.15 850 25.1 27.7 81.9 22 4.5 40.1
11:55 1021 30.15 850 25.1 28.3 82.9 20 3.4 38.1
12:00 1021 30.15 850 25.1 28.4 83.2 22 4.9 40.8
12:05 1021 30.15 850 25.1 27.9 82.3 22 4.3 39.7
12:10 1021 30.15 850 25.1 28.7 83.6 21 4.3 39.7
12:15 1021 30.15 850 25.1 29 84.2 20 4.3 39.7
12:20 1021 30.15 850 25.1 28.8 83.8 20 4.2 39.6
12:25 1021 30.15 850 25.1 29.1 84.4 19 3.7 38.7
12:30 1021 30.15 850 25.1 28.7 83.7 20 4 39.1
12:35 1021 30.15 850 25.1 28.8 83.9 20 4.1 39.4
12:40 1021 30.15 850 25.1 28.6 83.4 22 5.2 41.3
12:45 1020 30.12 850 25.1 29.1 84.4 21 4.6 40.3
12:50 1020 30.12 850 25.1 28.9 84 18 2.8 37.1
12:55 1020 30.12 850 25.1 29.3 84.7 18 2.5 36.6
13:00 1020 30.12 849 25.07 29.1 84.4 17 1.8 35.2
13:05 1020 30.12 849 25.07 28.2 82.8 19 2.7 36.8
13:10 1020 30.12 849 25.07 28.2 82.8 18 2 35.6
13:15 1020 30.12 849 25.07 28.8 83.8 19 3.5 38.3
13:20 1020 30.12 849 25.07 29.7 85.4 19 3.6 38.5
13:25 1020 30.12 849 25.07 30.1 86.2 17 2.6 36.7
13:30 1020 30.12 849 25.07 30.5 86.9 14 0.8 33.4
13:35 1020 30.12 849 25.07 30.5 86.9 15 1.8 35.2
13:40 1020 30.12 849 25.07 30.6 87.1 15 1 33.8
13:45 1020 30.12 849 25.07 30.1 86.1 15 1.1 34
13:50 1020 30.12 849 25.07 29.3 84.7 15 0.2 32.3
13:55 1020 30.12 849 25.07 30.2 86.4 15 0.7 33.3
14:00 1020 30.12 849 25.07 30 85.9 15 1 33.8
14:05 1020 30.12 849 25.07 29.8 85.6 15 0.4 32.8
14:10 1020 30.12 849 25.07 29.5 85.1 15 0.6 33.1
14:15 1020 30.12 849 25.07 29.1 84.4 16 1.3 34.3
14:20 1020 30.12 849 25.07 29.4 84.8 15 0.4 32.8
14:25 1020 30.12 849 25.07 28.7 83.6 17 1.2 34.1
14:30 1020 30.12 849 25.07 28.8 83.8 16 0.5 32.9
14:35 1020 30.12 849 25.07 29.4 84.9 15 0 32
14:40 1020 30.12 849 25.07 29.1 84.3 15 0.1 32.1
14:45 1020 30.12 849 25.07 29.2 84.5 15 -0.1 31.8
14:50 1020 30.12 849 25.07 29.4 84.9 15 0.2 32.4
14:55 1020 30.12 849 25.07 29.7 85.5 14 0.1 32.2
15:00 1020 30.12 849 25.07 30.4 86.7 14 0.6 33.1
15:05 1020 30.12 849 25.07 30.4 86.8 14 0.5 32.9
15:10 1020 30.12 849 25.07 30.5 86.8 14 0.5 33
15:15 1020 30.12 849 25.07 30.2 86.4 15 0.7 33.3
15:20 1020 30.12 849 25.07 30.5 87 15 1 33.9
15:25 1020 30.12 849 25.07 30.9 87.5 14 0.2 32.3
15:30 1020 30.12 849 25.07 31 87.7 14 0.9 33.5
15:35 1020 30.12 849 25.07 30.6 87 15 1.3 34.3
15:40 1020 30.12 849 25.07 29.6 85.2 14 -0 31.9
15:45 1020 30.12 849 25.07 30.1 86.3 15 1 33.9
15:50 1020 30.12 849 25.07 30.9 87.6 15 1.7 35.1
15:55 1020 30.12 849 25.07 31.1 88 15 1.4 34.6
16:00 1020 30.12 849 25.07 31.7 89 14 1.8 35.2
16:05 1020 30.12 849 25.07 31.9 89.4 15 2.4 36.2
16:10 1020 30.12 849 25.07 31.4 88.5 15 1.8 35.2
16:15 1020 30.12 849 25.07 30.9 87.5 15 1.5 34.7
16:20 1020 30.12 849 25.07 30.6 87 14 0.8 33.5
16:25 1019 30.09 849 25.07 30.3 86.5 15 1.2 34.2
16:30 1019 30.09 849 25.07 30.9 87.6 14 1 33.8
16:35 1019 30.09 849 25.07 30.1 86.1 15 0.8 33.4
16:40 1019 30.09 849 25.07 30.4 86.8 15 1.3 34.3
16:45 1019 30.09 849 25.07 30.4 86.7 15 1 33.8
16:50 1019 30.09 848 25.04 30.1 86.1 15 1.3 34.3
16:55 1019 30.09 848 25.04 29.4 84.9 16 1.5 34.6
17:00 1019 30.09 848 25.04 30.4 86.7 15 1.2 34.2
17:05 1019 30.09 848 25.04 30.7 87.2 15 1.3 34.3
17:10 1019 30.09 848 25.04 29.8 85.6 16 2.1 35.7
17:15 1019 30.09 848 25.04 30.1 86.2 17 2.7 36.8
17:20 1019 30.09 848 25.04 29.8 85.6 17 2.4 36.3
17:25 1019 30.09 848 25.04 29.5 85.1 17 1.9 35.4
17:30 1019 30.09 848 25.04 29.5 85 16 1.1 34
17:35 1019 30.09 848 25.04 29.4 85 15 0.9 33.5
17:40 1019 30.09 848 25.04 29.5 85 15 0.8 33.5
17:45 1019 30.09 848 25.04 29.1 84.3 17 2.2 36
17:50 1019 30.09 848 25.04 28.8 83.8 17 1.4 34.6
17:55 1019 30.09 848 25.04 28.7 83.6 17 1.7 35.1
18:00 1019 30.09 848 25.04 28.7 83.7 17 1.5 34.6
18:05 1019 30.09 848 25.04 28.7 83.6 17 1.8 35.2
18:10 1019 30.09 848 25.04 28.5 83.3 18 2.1 35.7
18:15 1019 30.09 848 25.04 28.3 82.9 20 3.5 38.2
18:20 1019 30.09 848 25.04 28.1 82.6 20 3 37.5
18:25 1019 30.09 848 25.04 27.8 82 21 3.6 38.4
18:30 1019 30.09 848 25.04 27.6 81.7 21 3.5 38.3
18:35 1019 30.09 848 25.04 27.5 81.5 22 4.2 39.5
18:40 1019 30.09 848 25.04 27.4 81.3 21 3.7 38.6
18:45 1019 30.09 848 25.04 27.5 81.5 20 3.1 37.5
18:50 1019 30.09 848 25.04 27.7 81.8 21 3.9 39
18:55 1019 30.09 848 25.04 27.7 81.8 22 4.2 39.6
19:00 1019 30.09 848 25.04 27.6 81.7 22 4.3 39.8
19:05 1019 30.09 848 25.04 27.5 81.6 22 4.3 39.8
19:10 1019 30.09 848 25.04 27.5 81.5 22 4 39.2
19:15 1019 30.09 848 25.04 27.5 81.5 22 4.5 40.1
19:20 1019 30.09 848 25.04 27.5 81.4 22 4.2 39.6
19:25 1019 30.09 848 25.04 27.4 81.3 22 3.9 38.9
19:30 1019 30.09 848 25.04 27.4 81.4 22 4 39.3
19:35 1019 30.09 848 25.04 27.3 81.1 22 4.2 39.5
19:40 1019 30.09 848 25.04 27.2 80.9 23 4.7 40.5
19:45 1019 30.09 848 25.04 27 80.6 24 5 41
19:50 1019 30.09 849 25.07 26.7 80 25 5.1 41.2
19:55 1019 30.09 849 25.07 26.4 79.6 26 5.4 41.8
20:00 1019 30.09 849 25.07 26.2 79.2 26 5.5 41.9
20:05 1019 30.09 849 25.07 26 78.8 28 6.2 43.1
20:10 1020 30.12 849 25.07 25.6 78.1 29 6.4 43.5
20:15 1020 30.12 849 25.07 25.2 77.3 29 6.1 42.9
20:20 1020 30.12 849 25.07 24.9 76.7 30 6.3 43.4
20:25 1020 30.12 849 25.07 24.4 75.9 31 6.3 43.3
20:30 1020 30.12 849 25.07 24.2 75.5 29 5.4 41.7
20:35 1020 30.12 849 25.07 24.2 75.5 31 6.1 42.9
20:40 1020 30.12 849 25.07 24 75.2 31 6.2 43.1
20:45 1020 30.12 849 25.07 23.9 75.1 31 6.2 43.1
20:50 1020 30.12 850 25.1 23.9 75 27 4 39.2
20:55 1020 30.12 850 25.1 24 75.2 29 5.3 41.5
21:00 1020 30.12 850 25.1 24 75.1 29 4.9 40.8
21:05 1020 30.12 850 25.1 24.1 75.4 30 5.6 42.2
21:10 1021 30.15 850 25.1 23.6 74.5 36 7.8 46
21:15 1021 30.15 850 25.1 22.6 72.6 41 8.9 48.1
21:20 1021 30.15 850 25.1 21.2 70.2 43 8.2 46.8
21:25 1021 30.15 850 25.1 20.7 69.3 44 8.3 47
21:30 1021 30.15 850 25.1 20.8 69.5 42 7.6 45.7
21:35 1021 30.15 850 25.1 20.9 69.6 38 6.3 43.3
21:40 1021 30.15 850 25.1 21.3 70.3 39 6.9 44.4
21:45 1021 30.15 850 25.1 21.1 70 41 7.4 45.3
21:50 1021 30.15 850 25.1 20.8 69.4 37 5.7 42.2
21:55 1021 30.15 850 25.1 20.9 69.7 40 7.1 44.8
22:00 1021 30.15 850 25.1 20.6 69 38 5.8 42.5
22:05 1021 30.15 850 25.1 20.9 69.7 43 8.2 46.8
22:10 1021 30.15 850 25.1 20.3 68.5 39 6.1 43
22:15 1021 30.15 850 25.1 20.1 68.2 38 5.5 41.8
22:20 1021 30.15 850 25.1 20 67.9 39 5.6 42.1
22:25 1021 30.15 850 25.1 19.7 67.4 39 5.6 42.1
22:30 1021 30.15 850 25.1 19.4 66.9 39 5.1 41.1
22:35 1021 30.15 850 25.1 19.2 66.6 40 5.4 41.8
22:40 1021 30.15 851 25.13 19.1 66.3 40 5.5 41.9
22:45 1021 30.15 851 25.13 19.1 66.4 38 4.7 40.4
22:50 1021 30.15 851 25.13 19.3 66.7 37 4.5 40.2
22:55 1022 30.18 851 25.13 19.2 66.5 38 4.7 40.5
23:00 1022 30.18 851 25.13 18.9 66 39 4.6 40.4
23:05 1022 30.18 851 25.13 18.8 65.9 39 4.9 40.8
23:10 1022 30.18 851 25.13 18.6 65.5 40 4.7 40.5
23:15 1022 30.18 851 25.13 18.6 65.4 40 5 41
23:20 1022 30.18 851 25.13 18.4 65 40 4.8 40.7
23:25 1022 30.18 851 25.13 18.3 64.9 40 4.6 40.3
23:30 1022 30.18 851 25.13 18.4 65.1 40 4.7 40.4
23:35 1022 30.18 851 25.13 18.3 65 40 4.6 40.3
23:40 1022 30.18 851 25.13 18.4 65.2 39 4.4 40
23:45 1022 30.18 851 25.13 18.8 65.8 36 3.6 38.5
23:50 1022 30.18 851 25.13 19.3 66.7 36 3.8 38.8
23:55 1022 30.18 851 25.13 19.4 66.9 36 4.1 39.3
24:00 1022 30.18 851 25.13 19.3 66.7 35 3.6 38.5